Terminal Aerodrome Forecast
Issued by NWS

Home | Current Version | Previous Version | Text Only | Print | Product List | Glossary On
Versions: 1 2 3 4 5 6 7 8 9 10 11 12
000
FTUS43 KICT 181739
TAFHUT
TAF
KHUT 181739Z 1818/1918 21010KT P6SM SKC
     FM190300 25007KT P6SM OVC250
     FM190900 30007KT P6SM BKN250
     FM191500 33010KT P6SM BKN250=

USA.gov is the U.S. government's official web portal to all federal, state and local government web resources and services.